PINE FLAT DAM (PNF)

Elevation: 970' · KINGS R basin · Operator: US Army Corps of Engineers

Provisional data, subject to change.
Query executed Saturday at 15:06:19   clock

Select a sensor type for a plot of data.
Note: Reservoir Flows are daily averages.

Earlier

Date RES ELE    STORAGE    RES CHG    TOC STO    ABV TOC    OUTFLOW    INFLOW    FNF    PPT INC    PPTINC4    TEMP MN    TEMP MX    WINDLEN    EVP PAN   
 FEET   AF   AF   AF   AF   CFS   CFS   CFS   INCHES   INCHES   DEG F   DEG F   MILES   INCHES  
07/02/2015 783.41 264916 -1111 1000000 -735084 1033 488 446 0.00 0.00 -- -- 36 0.16
07/03/2015 781.98 260757 -4159 1000000 -739243 2871 803 865 0.02 0.00 -- -- 55 0.31
07/04/2015 780.44 256316 -4441 1000000 -743684 2906 681 533 0.00 0.02 -- -- 51 0.30
07/05/2015 778.83 251717 -4599 1000000 -748283 2905 615 540 0.00 0.01 -- -- 58 0.31
07/06/2015 777.18 247050 -4667 1000000 -752950 2903 578 496 0.00 0.01 -- -- 61 0.30
07/07/2015 775.62 242679 -4371 1000000 -757321 2719 542 468 0.00 0.00 -- -- 56 0.29
07/08/2015 773.86 237798 -4881 1000000 -762202 2924 489 413 0.00 0.00 -- -- 60 0.29
07/09/2015 772.10 232969 -4829 1000000 -767031 2988 570 570 0.47 0.00 -- -- 42 0.19
07/10/2015 770.44 228462 -4507 1000000 -771538 2861 608 545 0.01 0.47 -- -- 52 0.22
07/11/2015 768.89 224297 -4165 1000000 -775703 2722 646 614 0.00 -- -- -- 49 0.28
07/12/2015 767.36 220224 -4073 1000000 -779776 2713 682 627 0.00 0.00 -- -- 51 0.27
07/13/2015 765.83 216192 -4032 1000000 -783808 2648 641 346 0.00 -- -- -- 58 0.30
07/14/2015 764.30 212198 -3994 1000000 -787802 2584 594 579 0.00 0.00 -- -- 54 0.29
07/15/2015 762.75 208193 -4005 1000000 -791807 2552 557 545 0.00 0.00 -- -- 56 0.29
07/16/2015 761.16 204126 -4067 1000000 -795874 2522 496 432 0.01 0.00 -- -- 55 0.30
07/17/2015 759.70 200429 -3697 1000000 -799571 2307 468 525 0.00 0.00 -- -- 52 0.30
07/18/2015 758.44 197268 -3161 1000000 -- 1962 392 367 0.16 0.00 -- -- 57 0.29
07/19/2015 757.03 193761 -3507 1000000 -- 2138 390 323 0.02 0.00 -- -- 59 0.26
07/20/2015 755.68 190435 -3326 1000000 -809565 2062 405 412 0.00 0.01 -- -- 51 0.25
07/21/2015 754.44 187406 -3029 1000000 -812594 2033 529 557 0.00 0.00 -- -- 68 0.30
07/22/2015 753.13 184235 -3171 1000000 -815765 2071 495 422 0.00 0.01 -- -- 69 0.30
07/23/2015 751.88 181235 -3000 1000000 -818765 2076 586 630 0.00 0.00 -- -- 57 0.28
07/24/2015 750.57 178120 -3115 1000000 -821880 2093 545 451 0.00 0.00 -- -- 53 0.29
07/25/2015 749.22 174939 -3181 1000000 -825061 2113 532 394 0.00 0.00 -- -- 59 0.30
07/26/2015 747.65 171278 -3661 1000000 -828722 2280 454 357 0.00 0.00 -- -- 54 0.26
07/27/2015 746.08 167657 -3621 1000000 -832343 2226 422 310 0.00 0.00 -- -- 52 0.28
07/28/2015 744.54 164146 -3511 1000000 -835854 2172 423 276 0.00 0.00 -- -- 52 0.30
07/29/2015 743.08 160852 -3294 1000000 -839148 2121 482 151 0.00 0.00 -- -- 51 0.31
07/30/2015 741.94 158306 -2546 1000000 -841694 1782 516 471 0.00 0.00 -- -- 47 0.24
07/31/2015 740.99 156200 -2106 1000000 -843800 1483 443 -298 0.00 0.00 -- -- 56 0.28
08/01/2015 -- -- -- -- -- -- -- -- -- 0.00 -- -- -- --

Later | Latest

Warning! This data is preliminary and subject to revision.

Show PNF Map | Plot PNF Data | 1 Month PNF Data | Real-Time PNF Data | PNF Info